createdAt,value
2019-04-11T00:00:25.332Z,1027.7
2019-04-11T00:01:37.038Z,1026.7
2019-04-11T00:02:49.589Z,1033.6
2019-04-11T00:04:01.778Z,1029
2019-04-11T00:05:13.974Z,1030.7
2019-04-11T00:06:26.167Z,1024.5
2019-04-11T00:07:38.362Z,1023.5
2019-04-11T00:08:50.781Z,1033
2019-04-11T00:10:02.762Z,1031.2
2019-04-11T00:11:14.944Z,1032
2019-04-11T00:12:27.146Z,1032.3
2019-04-11T00:13:39.343Z,1027.7
2019-04-11T00:14:51.532Z,1034.6
2019-04-11T00:16:03.734Z,1032.4
2019-04-11T00:17:15.923Z,1038.4
2019-04-11T00:18:28.125Z,1032.2
2019-04-11T00:19:40.313Z,1034.6
2019-04-11T00:20:52.508Z,1040.2
2019-04-11T00:22:04.707Z,1036.7
2019-04-11T00:23:16.901Z,1041.4
2019-04-11T00:24:29.091Z,1034.4
2019-04-11T00:25:41.291Z,1039.6
2019-04-11T00:26:53.477Z,1039.9
2019-04-11T00:28:05.684Z,1042.8
2019-04-11T00:29:17.881Z,1039.8
2019-04-11T00:30:30.101Z,1046.3
2019-04-11T00:31:42.287Z,1047.9
2019-04-11T00:32:54.050Z,1046.1
2019-04-11T00:34:06.667Z,1052.7
2019-04-11T00:35:18.851Z,1047.7
2019-04-11T00:36:31.004Z,1054.2
2019-04-11T00:37:43.255Z,1051.5
2019-04-11T00:38:55.437Z,1054.9
2019-04-11T00:40:07.639Z,1052.1
2019-04-11T00:41:19.832Z,1056.5
2019-04-11T00:42:32.019Z,1054.5
2019-04-11T00:43:44.221Z,1052.7
2019-04-11T00:44:56.419Z,1056
2019-04-11T00:46:08.615Z,1056.7
2019-04-11T00:47:20.914Z,1060.2
2019-04-11T00:48:33.003Z,1058.8
2019-04-11T00:49:45.193Z,1061.3
2019-04-11T00:50:57.392Z,1062.4
2019-04-11T00:52:09.590Z,1064.6
2019-04-11T00:53:21.868Z,1064.5
2019-04-11T00:54:33.982Z,1062.6
2019-04-11T00:55:46.171Z,1064.7
2019-04-11T00:56:58.369Z,1064.6
2019-04-11T00:58:10.057Z,1063.3
2019-04-11T00:59:22.757Z,1067.1
2019-04-11T01:00:34.952Z,1063.7
2019-04-11T01:01:47.149Z,1065.8
2019-04-11T01:02:59.340Z,1067.1
2019-04-11T01:04:11.559Z,1064.5
2019-04-11T01:05:23.727Z,1065.3
2019-04-11T01:06:35.926Z,1066.6
2019-04-11T01:07:48.237Z,1065.8
2019-04-11T01:09:00.323Z,1068.7
2019-04-11T01:10:12.513Z,1071.4
2019-04-11T01:11:24.710Z,1064.8
2019-04-11T01:12:36.902Z,1065.2
2019-04-11T01:13:49.095Z,1063.4
2019-04-11T01:15:01.298Z,1062
2019-04-11T01:16:13.480Z,1065.9
2019-04-11T01:17:25.068Z,1069.9
2019-04-11T01:18:37.875Z,1063.7
2019-04-11T01:19:50.075Z,1065.8
2019-04-11T01:21:02.263Z,1064.5
2019-04-11T01:22:14.046Z,1069.3
2019-04-11T01:23:26.659Z,1071.5
2019-04-11T01:24:38.857Z,1068.6
2019-04-11T01:25:51.046Z,1066.9
2019-04-11T01:27:03.245Z,1068.6
2019-04-11T01:28:15.433Z,1068.7
2019-04-11T01:29:27.627Z,1071.1
2019-04-11T01:30:39.829Z,1069.3
2019-04-11T01:31:52.024Z,1063.8
2019-04-11T01:33:04.226Z,1066.9
2019-04-11T01:34:16.414Z,1069.2
2019-04-11T01:35:28.609Z,1066.6
2019-04-11T01:36:40.080Z,1066.1
2019-04-11T01:37:53.000Z,1068.4
2019-04-11T01:39:05.019Z,1063.6
2019-04-11T01:40:17.507Z,1065.3
2019-04-11T01:41:29.588Z,1064
2019-04-11T01:42:41.795Z,1063
2019-04-11T01:43:53.097Z,1059.7
2019-04-11T01:45:06.170Z,1062.8
2019-04-11T01:46:18.367Z,1064.6
2019-04-11T01:47:30.562Z,1064.6
2019-04-11T01:48:42.755Z,1062.8
2019-04-11T01:49:54.952Z,1062
2019-04-11T01:51:07.015Z,1067.3
2019-04-11T01:52:19.341Z,1068.1
2019-04-11T01:54:43.753Z,1066.4
2019-04-11T01:55:55.934Z,1064.2
2019-04-11T01:57:08.121Z,1067.3
2019-04-11T01:58:20.317Z,1067.3
2019-04-11T01:59:32.510Z,1064.2
2019-04-11T02:00:44.711Z,1070.8
2019-04-11T02:01:56.921Z,1064.2
2019-04-11T02:03:09.101Z,1063.8
2019-04-11T02:04:21.300Z,1069.1
2019-04-11T02:05:33.493Z,1072.3
2019-04-11T02:06:45.694Z,1073.2
2019-04-11T02:07:57.876Z,1073.6
2019-04-11T02:09:10.081Z,1074.9
2019-04-11T02:10:22.272Z,1073.3
2019-04-11T02:11:34.469Z,1075.1
2019-04-11T02:12:46.853Z,1076.4
2019-04-11T02:13:58.863Z,1073.4
2019-04-11T02:15:11.063Z,1081
2019-04-11T02:16:23.253Z,1075.3
2019-04-11T02:17:35.439Z,1069.6
2019-04-11T02:18:47.638Z,1075.3
2019-04-11T02:19:59.836Z,1078.7
2019-04-11T02:21:12.024Z,1078.3
2019-04-11T02:22:24.226Z,1081.4
2019-04-11T02:23:36.414Z,1079.5
2019-04-11T02:24:48.616Z,1079.5
2019-04-11T02:26:00.812Z,1082.3
2019-04-11T02:27:13.007Z,1083.6
2019-04-11T02:28:25.196Z,1082.7
2019-04-11T02:29:37.423Z,1085.3
2019-04-11T02:30:49.058Z,1088
2019-04-11T02:32:01.792Z,1088.9
2019-04-11T02:33:13.975Z,1091.6
2019-04-11T02:34:26.176Z,1094.3
2019-04-11T02:35:38.003Z,1093.4
2019-04-11T02:36:50.603Z,1095.6
2019-04-11T02:38:02.757Z,1095.6
2019-04-11T02:39:14.954Z,1096.6
2019-04-11T02:40:27.161Z,1089.1
2019-04-11T02:41:39.357Z,1091.9
2019-04-11T02:42:51.547Z,1096.4
2019-04-11T02:44:03.731Z,1097.7
2019-04-11T02:45:15.935Z,1099.9
2019-04-11T02:46:28.127Z,1094.3
2019-04-11T02:47:40.333Z,1095.6
2019-04-11T02:48:52.516Z,1098.2
2019-04-11T02:50:04.714Z,1095.1
2019-04-11T02:51:16.906Z,1094.6
2019-04-11T02:52:29.106Z,1096.4
2019-04-11T02:53:41.289Z,1099.8
2019-04-11T02:54:53.492Z,1095.4
2019-04-11T02:56:05.684Z,1099
2019-04-11T02:57:17.885Z,1098.9
2019-04-11T02:58:30.082Z,1092.7
2019-04-11T02:59:42.268Z,1092
2019-04-11T03:00:54.473Z,1091.5
2019-04-11T03:02:06.067Z,1094
2019-04-11T03:03:18.862Z,1089.7
2019-04-11T03:04:31.052Z,1093.5
2019-04-11T03:05:43.254Z,1092.7
2019-04-11T03:06:55.449Z,1097.1
2019-04-11T03:08:07.641Z,1098.8
2019-04-11T03:09:19.833Z,1099.7
2019-04-11T03:10:32.003Z,301.3
2019-04-11T03:11:44.225Z,307.5
2019-04-11T03:12:56.414Z,302.2
2019-04-11T03:14:08.611Z,303
2019-04-11T03:15:20.814Z,307.5
2019-04-11T03:16:32.994Z,307
2019-04-11T03:17:45.199Z,306.2
2019-04-11T03:18:57.422Z,304.9
2019-04-11T03:20:09.589Z,310.1
2019-04-11T03:21:21.007Z,306.7
2019-04-11T03:22:33.973Z,308.8
2019-04-11T03:23:46.183Z,306.2
2019-04-11T03:24:58.036Z,308.4
2019-04-11T03:26:10.574Z,308.4
2019-04-11T03:27:22.763Z,304.5
2019-04-11T03:28:34.959Z,305.3
2019-04-11T03:29:47.143Z,306.7
2019-04-11T03:30:59.354Z,309.8
2019-04-11T03:32:11.539Z,313
2019-04-11T03:33:23.739Z,309.9
2019-04-11T03:34:35.926Z,315.1
2019-04-11T03:35:48.121Z,313
2019-04-11T03:37:00.327Z,314.3
2019-04-11T03:38:12.518Z,317.9
2019-04-11T03:39:24.712Z,316.6
2019-04-11T03:40:36.907Z,317.9
2019-04-11T03:41:49.010Z,316.6
2019-04-11T03:43:01.297Z,315.3
2019-04-11T03:44:13.617Z,320.6
2019-04-11T03:45:25.685Z,316.1
2019-04-11T03:46:37.942Z,317.9
2019-04-11T03:47:50.077Z,321
2019-04-11T03:49:02.283Z,324
2019-04-11T03:50:14.047Z,319.3
2019-04-11T03:51:26.670Z,318.8
2019-04-11T03:52:38.851Z,319.8
2019-04-11T03:53:51.055Z,325.9
2019-04-11T03:55:03.255Z,319.5
2019-04-11T03:56:15.449Z,316.4
2019-04-11T03:57:27.637Z,319.5
2019-04-11T03:58:39.831Z,316.9
2019-04-11T03:59:52.037Z,318.7
2019-04-11T04:01:04.263Z,317
2019-04-11T04:02:16.421Z,319.7
2019-04-11T04:03:28.615Z,324
2019-04-11T04:04:40.816Z,319.1
2019-04-11T04:05:53.004Z,324.9
2019-04-11T04:07:05.202Z,319.5
2019-04-11T04:08:17.391Z,322.7
2019-04-11T04:09:29.594Z,324
2019-04-11T04:10:41.795Z,324.1
2019-04-11T04:11:53.983Z,323.7
2019-04-11T04:13:06.193Z,319.2
2019-04-11T04:14:18.373Z,324.1
2019-04-11T04:15:30.567Z,322.9
2019-04-11T04:16:42.767Z,328.9
2019-04-11T04:17:54.961Z,327.1
2019-04-11T04:19:07.153Z,333.7
2019-04-11T04:20:19.035Z,330.2
2019-04-11T04:21:31.540Z,329.7
2019-04-11T04:22:43.745Z,332.3
2019-04-11T04:23:55.932Z,339.8
2019-04-11T04:25:08.125Z,333.9
2019-04-11T04:26:20.327Z,337.5
2019-04-11T04:27:32.520Z,335.3
2019-04-11T04:28:44.720Z,341.9
2019-04-11T04:29:56.913Z,339.8
2019-04-11T04:31:09.115Z,339.4
2019-04-11T04:32:21.312Z,342.5
2019-04-11T04:33:33.501Z,343.4
2019-04-11T04:34:45.699Z,341.3
2019-04-11T04:35:57.893Z,340.9
2019-04-11T04:37:10.082Z,341.8
2019-04-11T04:38:22.323Z,336.6
2019-04-11T04:39:34.470Z,338.8
2019-04-11T04:40:46.675Z,340.9
2019-04-11T04:41:58.864Z,341.4
2019-04-11T04:43:11.062Z,346.6
2019-04-11T04:44:23.245Z,341.8
2019-04-11T04:45:35.450Z,342.2
2019-04-11T04:46:47.653Z,343.4
2019-04-11T04:47:59.834Z,353.1
2019-04-11T04:49:12.035Z,347.8
2019-04-11T04:50:24.232Z,351.7
2019-04-11T04:51:36.431Z,346.9
2019-04-11T04:52:48.618Z,341.6
2019-04-11T04:54:00.813Z,350.3
2019-04-11T04:55:13.008Z,354.2
2019-04-11T04:56:25.210Z,355.4
2019-04-11T04:57:37.396Z,353.6
2019-04-11T04:58:49.600Z,355.3
2019-04-11T05:00:01.788Z,355.2
2019-04-11T05:01:13.985Z,357.2
2019-04-11T05:02:26.180Z,361.1
2019-04-11T05:03:38.378Z,360.6
2019-04-11T05:04:50.576Z,358.3
2019-04-11T05:06:02.078Z,360.3
2019-04-11T05:07:14.964Z,363.2
2019-04-11T05:08:27.154Z,355.7
2019-04-11T05:09:39.356Z,367.8
2019-04-11T05:10:51.059Z,358.5
2019-04-11T05:12:03.751Z,365.9
2019-04-11T05:13:15.938Z,360.9
2019-04-11T05:14:28.137Z,362.9
2019-04-11T05:15:40.336Z,365
2019-04-11T05:16:52.525Z,363.4
2019-04-11T05:18:04.721Z,364.1
2019-04-11T05:19:16.915Z,367.8
2019-04-11T05:20:29.104Z,368.4
2019-04-11T05:21:41.306Z,369.1
2019-04-11T05:22:53.508Z,375.5
2019-04-11T05:24:05.690Z,378.8
2019-04-11T05:25:17.896Z,375.5
2019-04-11T05:26:30.083Z,374.3
2019-04-11T05:27:42.289Z,379
2019-04-11T05:28:54.474Z,382.1
2019-04-11T05:30:06.668Z,381.9
2019-04-11T05:31:18.866Z,387.3
2019-04-11T05:32:31.064Z,383.6
2019-04-11T05:33:43.256Z,392.5
2019-04-11T05:34:55.457Z,391.4
2019-04-11T05:36:07.645Z,385.9
2019-04-11T05:37:19.846Z,388.5
2019-04-11T05:38:32.030Z,389.2
2019-04-11T05:39:44.228Z,392.7
2019-04-11T05:40:56.423Z,394.7
2019-04-11T05:42:08.649Z,393
2019-04-11T05:43:20.818Z,395
2019-04-11T05:44:33.009Z,397.8
2019-04-11T05:45:45.215Z,395.5
2019-04-11T05:46:57.402Z,394.4
2019-04-11T05:48:09.607Z,396.9
2019-04-11T05:49:21.791Z,400.9
2019-04-11T05:50:33.992Z,398.3
2019-04-11T05:51:46.187Z,399.8
2019-04-11T05:52:58.378Z,396.2
2019-04-11T05:55:22.771Z,399.4
2019-04-11T05:56:34.956Z,400.2
2019-04-11T05:57:47.161Z,404.4
2019-04-11T05:58:59.350Z,410.4
2019-04-11T06:00:11.553Z,401.7
2019-04-11T06:01:23.007Z,400.5
2019-04-11T06:02:35.936Z,406.3
2019-04-11T06:03:48.131Z,398.7
2019-04-11T06:05:00.331Z,403.9
2019-04-11T06:06:12.053Z,409.3
2019-04-11T06:07:24.722Z,409.8
2019-04-11T06:08:36.942Z,412.6
2019-04-11T06:09:49.136Z,415.1
2019-04-11T06:11:01.312Z,418.8
2019-04-11T06:12:13.050Z,414.5
2019-04-11T06:13:25.696Z,417.4
2019-04-11T06:14:37.889Z,419.5
2019-04-11T06:15:50.083Z,420.6
2019-04-11T06:17:02.027Z,423.4
2019-04-11T06:18:14.486Z,422.6
2019-04-11T06:19:26.662Z,421.4
2019-04-11T06:20:38.869Z,422.8
2019-04-11T06:21:51.063Z,423.1
2019-04-11T06:23:03.257Z,432.8
2019-04-11T06:24:15.457Z,430.8
2019-04-11T06:25:27.643Z,430
2019-04-11T06:26:39.850Z,423.4
2019-04-11T06:27:52.039Z,426.5
2019-04-11T06:29:04.236Z,432.9
2019-04-11T06:30:16.043Z,431.9
2019-04-11T06:31:28.625Z,429.9
2019-04-11T06:32:40.842Z,429.4
2019-04-11T06:33:53.014Z,430.7
2019-04-11T06:35:05.207Z,432.9
2019-04-11T06:36:17.417Z,437.8
2019-04-11T06:37:29.060Z,429.5
2019-04-11T06:38:41.789Z,433.6
2019-04-11T06:39:53.986Z,436.4
2019-04-11T06:41:06.018Z,436.2
2019-04-11T06:42:18.368Z,438.1
2019-04-11T06:43:30.584Z,444
2019-04-11T06:44:42.774Z,437.3
2019-04-11T06:45:54.989Z,433.2
2019-04-11T06:47:07.163Z,444.1
2019-04-11T06:48:19.355Z,444.4
2019-04-11T06:49:31.056Z,444.2
2019-04-11T06:50:43.763Z,451.9
2019-04-11T06:51:55.944Z,445.6
2019-04-11T06:53:08.139Z,455.8
2019-04-11T06:54:20.328Z,449.1
2019-04-11T06:55:32.052Z,453.7
2019-04-11T06:56:44.725Z,452.6
2019-04-11T06:57:56.912Z,451.9
2019-04-11T06:59:09.120Z,458.2
2019-04-11T07:00:21.031Z,453.3
2019-04-11T07:01:33.507Z,454.5
2019-04-11T07:02:45.702Z,456.3
2019-04-11T07:03:57.888Z,450.3
2019-04-11T07:05:10.093Z,455.5
2019-04-11T07:06:22.279Z,461.6
2019-04-11T07:07:34.485Z,455.2
2019-04-11T07:08:46.672Z,461.2
2019-04-11T07:09:58.871Z,460.2
2019-04-11T07:11:11.082Z,468.5
2019-04-11T07:12:23.264Z,463.1
2019-04-11T07:13:35.466Z,468.4
2019-04-11T07:14:47.657Z,467.9
2019-04-11T07:15:59.085Z,465.9
2019-04-11T07:17:12.160Z,471.5
2019-04-11T07:18:24.241Z,468.5
2019-04-11T07:19:36.430Z,470.3
2019-04-11T07:20:48.626Z,474.1
2019-04-11T07:22:00.832Z,472.1
2019-04-11T07:23:13.019Z,474.6
2019-04-11T07:24:25.221Z,482.1
2019-04-11T07:25:37.410Z,472.6
2019-04-11T07:26:49.665Z,479
2019-04-11T07:28:01.799Z,474.8
2019-04-11T07:29:14.004Z,481
2019-04-11T07:30:26.190Z,483.1
2019-04-11T07:31:38.394Z,482.3
2019-04-11T07:32:50.579Z,485.1
2019-04-11T07:34:02.781Z,492.6
2019-04-11T07:35:14.981Z,485.6
2019-04-11T07:36:27.165Z,483.5
2019-04-11T07:37:39.365Z,489
2019-04-11T07:38:51.572Z,490.8
2019-04-11T07:40:03.752Z,490.1
2019-04-11T07:41:15.950Z,493
2019-04-11T07:42:28.153Z,492
2019-04-11T07:43:40.338Z,493.5
2019-04-11T07:44:52.540Z,488.9
2019-04-11T07:46:04.720Z,492.5
2019-04-11T07:47:16.928Z,493.5
2019-04-11T07:48:29.114Z,493.9
2019-04-11T07:49:41.311Z,496.8
2019-04-11T07:50:53.509Z,491.2
2019-04-11T07:52:05.708Z,497.9
2019-04-11T07:53:17.903Z,496.9
2019-04-11T07:54:30.098Z,493.6
2019-04-11T07:55:42.284Z,493.5
2019-04-11T07:56:54.493Z,494.1
2019-04-11T07:58:06.676Z,499.1
2019-04-11T07:59:18.892Z,492.7
2019-04-11T08:00:31.006Z,498.6
2019-04-11T08:01:43.264Z,501.1
2019-04-11T08:02:55.045Z,499.8
2019-04-11T08:04:07.667Z,498.9
2019-04-11T08:05:19.845Z,506.7
2019-04-11T08:06:32.096Z,505.9
2019-04-11T08:07:44.236Z,501.4
2019-04-11T08:08:56.432Z,501.1
2019-04-11T08:10:08.626Z,505.9
2019-04-11T08:11:20.824Z,510.2
2019-04-11T08:12:33.013Z,512.2
2019-04-11T08:13:45.223Z,511.3
2019-04-11T08:14:57.040Z,506.9
2019-04-11T08:16:09.607Z,509.6
2019-04-11T08:17:21.079Z,515.1
2019-04-11T08:18:33.987Z,514.2
2019-04-11T08:19:46.191Z,519.1
2019-04-11T08:20:58.381Z,516.5
2019-04-11T08:22:10.574Z,513.3
2019-04-11T08:23:22.077Z,521.1
2019-04-11T08:24:34.970Z,515.2
2019-04-11T08:25:47.159Z,514.7
2019-04-11T08:26:59.352Z,516.8
2019-04-11T08:28:11.551Z,515.5
2019-04-11T08:29:23.752Z,514.4
2019-04-11T08:30:35.953Z,515.9
2019-04-11T08:31:48.137Z,515.1
2019-04-11T08:33:00.033Z,518.8
2019-04-11T08:34:13.033Z,516.2
2019-04-11T08:35:24.723Z,528.1
2019-04-11T08:36:36.923Z,527.1
2019-04-11T08:37:49.115Z,521.7
2019-04-11T08:39:01.311Z,522.8
2019-04-11T08:40:13.504Z,532.2
2019-04-11T08:41:25.708Z,528.1
2019-04-11T08:42:37.890Z,531.9
2019-04-11T08:43:50.093Z,532.8
2019-04-11T08:45:02.280Z,524.7
2019-04-11T08:46:14.655Z,529.1
2019-04-11T08:47:26.670Z,532
2019-04-11T08:48:38.871Z,532.6
2019-04-11T08:49:51.006Z,529.5
2019-04-11T08:51:03.261Z,531.6
2019-04-11T08:52:15.460Z,537.6
2019-04-11T08:53:27.648Z,537.7
2019-04-11T08:54:39.847Z,533.1
2019-04-11T08:55:52.041Z,525.9
2019-04-11T08:57:04.239Z,536.2
2019-04-11T08:58:16.436Z,531.2
2019-04-11T08:59:28.633Z,534.8
2019-04-11T09:00:40.818Z,533.8
2019-04-11T09:01:53.022Z,540
2019-04-11T09:03:05.241Z,543.9
2019-04-11T09:04:17.405Z,539.3
2019-04-11T09:05:29.599Z,540.4
2019-04-11T09:06:42.523Z,532.4
2019-04-11T09:07:53.987Z,540.5
2019-04-11T09:10:18.386Z,543.6
2019-04-11T09:11:30.573Z,541.7
2019-04-11T09:12:42.769Z,542.8
2019-04-11T09:13:54.968Z,539.7
2019-04-11T09:15:07.156Z,538.1
2019-04-11T09:16:19.357Z,538.5
2019-04-11T09:17:31.559Z,543.5
2019-04-11T09:18:43.752Z,542.5
2019-04-11T09:19:55.948Z,536.9
2019-04-11T09:21:08.133Z,533.6
2019-04-11T09:22:20.034Z,540.5
2019-04-11T09:23:32.053Z,534.1
2019-04-11T09:24:44.727Z,532.7
2019-04-11T09:25:56.915Z,542
2019-04-11T09:27:09.116Z,540.9
2019-04-11T09:28:21.309Z,539.4
2019-04-11T09:29:33.508Z,543.1
2019-04-11T09:30:45.696Z,541.5
2019-04-11T09:31:57.899Z,536
2019-04-11T09:33:10.085Z,536.1
2019-04-11T09:34:22.281Z,541
2019-04-11T09:35:34.473Z,538.4
2019-04-11T09:36:46.688Z,545.3
2019-04-11T09:37:58.087Z,541.3
2019-04-11T09:39:11.065Z,543.4
2019-04-11T09:40:23.263Z,540.3
2019-04-11T09:41:35.457Z,542.2
2019-04-11T09:42:47.657Z,548
2019-04-11T09:43:59.860Z,538.2
2019-04-11T09:45:12.041Z,541.5
2019-04-11T09:46:24.025Z,540.2
2019-04-11T09:47:36.453Z,545.3
2019-04-11T09:48:48.635Z,544.7
2019-04-11T09:50:00.832Z,544.4
2019-04-11T09:51:13.037Z,546.3
2019-04-11T09:52:25.227Z,535.9
2019-04-11T09:53:37.702Z,545.9
2019-04-11T09:54:49.611Z,546.8
2019-04-11T09:56:01.813Z,547.9
2019-04-11T09:57:14.036Z,545.3
2019-04-11T09:58:26.202Z,538.8
2019-04-11T09:59:38.403Z,548
2019-04-11T10:00:50.598Z,545.1
2019-04-11T10:02:02.803Z,546
2019-04-11T10:03:14.992Z,551.3
2019-04-11T10:04:27.187Z,553.1
2019-04-11T10:05:39.385Z,548.5
2019-04-11T10:06:51.619Z,548.2
2019-04-11T10:08:03.782Z,552.7
2019-04-11T10:09:15.971Z,551.2
2019-04-11T10:10:28.017Z,556.1
2019-04-11T10:11:40.376Z,552.5
2019-04-11T10:12:52.562Z,554.1
2019-04-11T10:14:04.757Z,557.1
2019-04-11T10:15:16.967Z,552.5
2019-04-11T10:16:29.162Z,551.5
2019-04-11T10:17:41.353Z,545.3
2019-04-11T10:18:53.567Z,552.5
2019-04-11T10:20:05.810Z,550
2019-04-11T10:21:17.940Z,548.3
2019-04-11T10:22:30.138Z,543.7
2019-04-11T10:23:42.363Z,547.4
2019-04-11T10:24:54.536Z,545.1
2019-04-11T10:26:06.734Z,552.7
2019-04-11T10:27:18.933Z,550.6
2019-04-11T10:28:31.125Z,548.9
2019-04-11T10:29:43.324Z,547.6
2019-04-11T10:30:55.522Z,544
2019-04-11T10:32:07.711Z,552.1
2019-04-11T10:33:19.923Z,551.3
2019-04-11T10:34:32.129Z,549
2019-04-11T10:35:44.003Z,552.2
2019-04-11T10:36:56.490Z,557.4
2019-04-11T10:38:09.004Z,558
2019-04-11T10:39:20.900Z,555.5
2019-04-11T10:40:33.084Z,554.8
2019-04-11T10:41:45.032Z,552.7
2019-04-11T10:42:57.494Z,560.2
2019-04-11T10:44:09.680Z,557.8
2019-04-11T10:45:21.878Z,561.2
2019-04-11T10:46:34.074Z,562.2
2019-04-11T10:47:46.270Z,562.6
2019-04-11T10:48:58.479Z,561.1
2019-04-11T10:50:10.668Z,557.7
2019-04-11T10:51:22.880Z,555.5
2019-04-11T10:53:47.405Z,566
2019-04-11T10:54:59.458Z,562.1
2019-04-11T10:56:11.651Z,560.1
2019-04-11T10:57:23.849Z,565.2
2019-04-11T10:58:36.050Z,568.7
2019-04-11T10:59:48.234Z,570.5
2019-04-11T11:01:00.439Z,564.4
2019-04-11T11:02:12.064Z,564.6
2019-04-11T11:03:24.822Z,569.3
2019-04-11T11:04:37.036Z,559.1
2019-04-11T11:05:49.229Z,562.1
2019-04-11T11:07:01.482Z,562.3
2019-04-11T11:08:13.618Z,567.3
2019-04-11T11:09:25.825Z,567.8
2019-04-11T11:10:38.020Z,564.1
2019-04-11T11:11:50.213Z,562.1
2019-04-11T11:13:02.414Z,562.5
2019-04-11T11:14:14.608Z,558.7
2019-04-11T11:15:26.797Z,555.3
2019-04-11T11:16:38.995Z,558.4
2019-04-11T11:17:51.200Z,561.4
2019-04-11T11:19:03.397Z,558.8
2019-04-11T11:20:15.584Z,560.6
2019-04-11T11:21:27.792Z,565.3
2019-04-11T11:22:39.994Z,567.6
2019-04-11T11:23:52.179Z,564.7
2019-04-11T11:25:04.377Z,566.8
2019-04-11T11:26:16.572Z,563.7
2019-04-11T11:27:28.784Z,564.3
2019-04-11T11:28:40.967Z,563.8
2019-04-11T11:29:53.166Z,562.5
2019-04-11T11:31:05.363Z,563.4
2019-04-11T11:32:17.566Z,567.1
2019-04-11T11:33:29.755Z,567.8
2019-04-11T11:34:41.095Z,568.1
2019-04-11T11:35:54.145Z,566.1
2019-04-11T11:37:06.347Z,567.4
2019-04-11T11:38:18.550Z,566.4
2019-04-11T11:39:30.741Z,569.7
2019-04-11T11:40:42.939Z,572.3
2019-04-11T11:41:55.013Z,570
2019-04-11T11:43:07.332Z,573.9
2019-04-11T11:44:19.527Z,578.8
2019-04-11T11:45:31.072Z,571.5
2019-04-11T11:46:43.929Z,581.6
2019-04-11T11:47:56.118Z,570.2
2019-04-11T11:49:08.321Z,581.4
2019-04-11T11:50:20.516Z,581.7
2019-04-11T11:51:32.718Z,580.5
2019-04-11T11:52:44.905Z,580.7
2019-04-11T11:53:57.109Z,585.1
2019-04-11T11:55:09.314Z,585
2019-04-11T11:56:21.501Z,589.5
2019-04-11T11:57:33.703Z,585.7
2019-04-11T11:58:45.911Z,582.2
2019-04-11T11:59:58.012Z,590
2019-04-11T12:01:10.028Z,590
2019-04-11T12:02:22.481Z,587.5
2019-04-11T12:03:34.686Z,588.8
2019-04-11T12:04:46.879Z,584.3
2019-04-11T12:05:59.151Z,583.9
2019-04-11T12:07:11.276Z,589.5
2019-04-11T12:08:23.726Z,588.4
2019-04-11T12:09:35.066Z,596.9
2019-04-11T12:10:47.871Z,589.8
2019-04-11T12:12:00.083Z,594.3
2019-04-11T12:13:12.259Z,588.2
2019-04-11T12:14:24.458Z,589.1
2019-04-11T12:15:36.655Z,589.8
2019-04-11T12:16:48.845Z,593.4
2019-04-11T12:18:01.040Z,588.7
2019-04-11T12:19:13.245Z,590.4
2019-04-11T12:20:25.441Z,592.2
2019-04-11T12:21:37.650Z,583.6
2019-04-11T12:22:49.837Z,587.3
2019-04-11T12:24:02.033Z,589.3
2019-04-11T12:25:14.222Z,591.1
2019-04-11T12:26:26.459Z,592.4
2019-04-11T12:27:38.062Z,591.2
2019-04-11T12:28:50.833Z,591.3
2019-04-11T12:30:03.004Z,590.3
2019-04-11T12:31:15.212Z,597.2
2019-04-11T12:32:27.415Z,595
2019-04-11T12:33:39.605Z,593.3
2019-04-11T12:34:51.080Z,593.4
2019-04-11T12:36:04.007Z,591.1
2019-04-11T12:37:16.195Z,593
2019-04-11T12:38:28.393Z,590.2
2019-04-11T12:39:40.595Z,588.1
2019-04-11T12:40:52.795Z,595.5
2019-04-11T12:42:05.032Z,591.3
2019-04-11T12:43:17.181Z,587.7
2019-04-11T12:44:29.383Z,592.6
2019-04-11T12:45:41.058Z,598.7
2019-04-11T12:46:53.077Z,593.6
2019-04-11T12:48:05.096Z,595.2
2019-04-11T12:49:18.214Z,595.4
2019-04-11T12:50:30.036Z,587.6
2019-04-11T12:51:42.561Z,596.2
2019-04-11T12:52:54.762Z,593.9
2019-04-11T12:54:06.949Z,590.7
2019-04-11T12:55:19.152Z,594.9
2019-04-11T12:56:31.352Z,593.1
2019-04-11T12:57:43.539Z,593.2
2019-04-11T12:58:55.744Z,593.2
2019-04-11T13:00:07.941Z,592.3
2019-04-11T13:01:20.151Z,593.5
2019-04-11T13:02:32.346Z,593.7
2019-04-11T13:03:44.536Z,595.3
2019-04-11T13:04:56.727Z,594.7
2019-04-11T13:06:08.947Z,589.2
2019-04-11T13:07:21.132Z,596.7
2019-04-11T13:08:33.321Z,591
2019-04-11T13:09:45.514Z,591.6
2019-04-11T13:10:57.710Z,597.7
2019-04-11T13:12:09.910Z,593.6
2019-04-11T13:13:22.101Z,599.4
2019-04-11T13:14:34.035Z,598.2
2019-04-11T13:15:46.506Z,595.7
2019-04-11T13:16:58.688Z,597.6
2019-04-11T13:18:10.894Z,601.1
2019-04-11T13:19:23.089Z,597.7
2019-04-11T13:20:35.286Z,598.5
2019-04-11T13:21:47.480Z,596.7
2019-04-11T13:22:59.684Z,595.6
2019-04-11T13:24:11.894Z,595
2019-04-11T13:25:24.080Z,591
2019-04-11T13:26:19.821Z,509.9
2019-04-11T14:12:18.866Z,572.9
2019-04-11T14:13:31.065Z,570.2
2019-04-11T14:14:43.260Z,565.2
2019-04-11T14:15:55.457Z,566.6
2019-04-11T14:17:07.650Z,570.5
2019-04-11T14:18:19.852Z,568.1
2019-04-11T14:19:32.042Z,571.1
2019-04-11T14:20:44.241Z,574.2
2019-04-11T14:21:56.439Z,569.9
2019-04-11T14:23:08.637Z,572.5
2019-04-11T14:24:20.829Z,568.2
2019-04-11T14:25:33.039Z,567.4
2019-04-11T14:26:45.022Z,562.7
2019-04-11T14:27:57.422Z,562.9
2019-04-11T14:29:09.062Z,568.9
2019-04-11T14:30:21.082Z,566
2019-04-11T14:31:34.008Z,567.3
2019-04-11T14:32:46.239Z,567.2
2019-04-11T14:33:58.414Z,567.7
2019-04-11T14:35:10.608Z,565.2
2019-04-11T14:36:22.790Z,560.8
2019-04-11T14:37:34.997Z,561.8
2019-04-11T14:38:47.190Z,560.6
2019-04-11T14:39:59.038Z,557.2
2019-04-11T14:41:11.057Z,560.2
2019-04-11T14:42:23.077Z,559.7
2019-04-11T14:43:35.009Z,559.7
2019-04-11T14:44:48.186Z,559.9
2019-04-11T14:46:00.393Z,563.6
2019-04-11T14:47:12.574Z,562.8
2019-04-11T14:48:24.759Z,563.4
2019-04-11T14:49:36.961Z,561.4
2019-04-11T14:50:49.158Z,561.7
2019-04-11T14:52:01.353Z,560.1
2019-04-11T14:53:13.549Z,558.5
2019-04-11T14:54:25.752Z,557.4
2019-04-11T14:55:37.946Z,551.2
2019-04-11T14:56:50.137Z,549.9
2019-04-11T14:58:02.033Z,556.5
2019-04-11T14:59:14.531Z,553.1
2019-04-11T15:00:26.730Z,550.4
2019-04-11T15:01:38.927Z,552.7
2019-04-11T15:02:51.129Z,552.9
2019-04-11T15:04:03.326Z,550
2019-04-11T15:05:15.511Z,558.8
2019-04-11T15:06:27.719Z,558.5
2019-04-11T15:07:39.917Z,556.2
2019-04-11T15:08:52.102Z,555.8
2019-04-11T15:10:04.309Z,559.5
2019-04-11T15:11:16.505Z,561.4
2019-04-11T15:12:28.695Z,555
2019-04-11T15:13:40.898Z,558.1
2019-04-11T15:14:53.116Z,554.1
2019-04-11T15:16:05.300Z,554.5
2019-04-11T15:17:17.797Z,559.7
2019-04-11T15:18:29.695Z,556.6
2019-04-11T15:19:42.085Z,556.4
2019-04-11T15:20:54.011Z,551.5
2019-04-11T15:22:06.272Z,548
2019-04-11T15:23:35.798Z,550.5
2019-04-11T15:24:30.675Z,555.7
2019-04-11T15:25:42.008Z,553.1
2019-04-11T15:26:55.066Z,549
2019-04-11T15:28:07.306Z,545
2019-04-11T15:29:19.457Z,551
2019-04-11T15:30:31.654Z,555.2
2019-04-11T15:31:43.085Z,562
2019-04-11T15:32:56.053Z,558.8
2019-04-11T15:34:08.251Z,557.4
2019-04-11T15:35:20.446Z,551.1
2019-04-11T15:36:32.658Z,555.5
2019-04-11T15:37:44.846Z,556.6
2019-04-11T15:38:57.036Z,550.9
2019-04-11T15:40:09.239Z,550.7
2019-04-11T15:41:21.421Z,554.4
2019-04-11T15:42:33.630Z,548.1
2019-04-11T15:43:45.828Z,551.3
2019-04-11T15:44:58.004Z,547.9
2019-04-11T15:46:10.213Z,548.5
2019-04-11T15:47:22.415Z,549.8
2019-04-11T15:48:34.613Z,551.3
2019-04-11T15:49:46.800Z,550.6
2019-04-11T15:50:59.000Z,547.4
2019-04-11T15:52:11.216Z,550.6
2019-04-11T15:53:23.040Z,546.9
2019-04-11T15:54:35.595Z,550.1
2019-04-11T15:55:47.808Z,548.5
2019-04-11T15:56:59.994Z,547.2
2019-04-11T15:58:12.194Z,546.4
2019-04-11T15:59:24.383Z,552
2019-04-11T16:00:36.058Z,547.1
2019-04-11T16:01:48.784Z,543.4
2019-04-11T16:03:00.097Z,545.9
2019-04-11T16:04:13.016Z,544.7
2019-04-11T16:05:25.375Z,543.3
2019-04-11T16:06:37.099Z,538.2
2019-04-11T16:07:49.770Z,539.4
2019-04-11T16:09:01.966Z,543.5
2019-04-11T16:10:14.155Z,542.4
2019-04-11T16:11:26.353Z,543
2019-04-11T16:12:38.551Z,540.1
2019-04-11T16:13:50.753Z,538.7
2019-04-11T16:15:02.943Z,545.4
2019-04-11T16:16:15.147Z,538.6
2019-04-11T16:17:27.343Z,542.5